Pleven, Bulgaria
Current Conditions -  °F | °C
As of 9:00 PM on Thursday 23 Oct 2014 (Local Time) from LBGO Reporting Station
Light Rain Light Rain  
Wind Chill: 46°   Ceiling: 3300
Heat Index: 46°   Visibility: 4mi
Dew Point: 46°   Wind: 2mph
Humidity: 100%   Direction: 280°W
Pressure: 29.71"   Gusts: NA
Location:  43.42°N, 24.62°E
Report Text: LBGO 231800Z 28001MPS 6000 -RA SCT018 OVC033 08/08 Q1006 RERA NOSIG
Loading
Personal Weather Stations






























Interactive Weather Map
Tropical Storm Tracking
New forecast layout! Learn more

10-Day Weather Forecast

Advertisements
Track Severe Weather on mobile